Time;durP1;ratioP1;P1;durP2;ratioP2;P2;SDS_P1;SDS_P2;PMS_P1;PMS_P2;Temp;Humidity;BMP_temperature;BMP_pressure;BME280_temperature;BME280_humidity;BME280_pressure;Samples;Min_cycle;Max_cycle;Signal;HPM_P1;HPM_P2
2023/04/05 00:01:25;;;;;;;11.93;10.32;;;9.80;93.50;;;;;;5068705;28;20067;-62
2023/04/05 00:03:53;;;;;;;13.52;10.43;;;9.80;93.40;;;;;;5072389;28;20028;-61
2023/04/05 00:06:20;;;;;;;12.15;9.63;;;9.80;93.50;;;;;;5060863;28;20097;-63
2023/04/05 00:08:48;;;;;;;12.70;10.18;;;9.80;93.30;;;;;;5072185;28;20152;-62
2023/04/05 00:11:15;;;;;;;11.80;9.68;;;9.80;93.30;;;;;;5070219;28;20115;-62
2023/04/05 00:13:41;;;;;;;14.23;10.45;;;9.80;93.20;;;;;;5072031;28;20078;-64
2023/04/05 00:16:07;;;;;;;13.63;10.75;;;9.80;93.20;;;;;;5079423;28;20137;-63
2023/04/05 00:18:34;;;;;;;11.98;9.98;;;9.80;93.40;;;;;;5069100;28;20391;-60
2023/04/05 00:21:00;;;;;;;14.48;10.35;;;9.70;93.50;;;;;;5071383;28;20037;-63
2023/04/05 00:23:25;;;;;;;10.45;9.20;;;9.70;93.60;;;;;;5071906;28;20048;-64
2023/04/05 00:25:52;;;;;;;11.57;10.27;;;9.70;93.70;;;;;;5066475;28;20033;-63
2023/04/05 00:28:17;;;;;;;10.73;8.68;;;9.70;93.70;;;;;;5070730;28;20024;-62
2023/04/05 00:30:43;;;;;;;11.90;10.15;;;9.70;93.70;;;;;;5068002;28;20032;-64
2023/04/05 00:33:12;;;;;;;15.02;9.93;;;9.70;93.60;;;;;;5064448;28;20028;-62
2023/04/05 00:35:37;;;;;;;10.88;9.40;;;9.70;93.60;;;;;;5040709;28;20037;-59
2023/04/05 00:38:03;;;;;;;12.00;9.85;;;9.70;93.70;;;;;;5071069;28;20116;-57
2023/04/05 00:40:29;;;;;;;12.38;9.63;;;9.70;93.70;;;;;;5066940;28;20090;-55
2023/04/05 00:42:54;;;;;;;15.35;10.43;;;9.70;93.80;;;;;;5065400;28;20090;-56
2023/04/05 00:45:20;;;;;;;13.30;10.13;;;9.70;93.70;;;;;;5070316;28;20028;-57
2023/04/05 00:47:46;;;;;;;13.27;10.02;;;9.70;93.80;;;;;;5078120;28;20035;-56
2023/04/05 00:50:12;;;;;;;12.07;9.57;;;9.80;93.80;;;;;;5067992;28;20040;-56
2023/04/05 00:52:40;;;;;;;13.63;10.30;;;9.80;93.70;;;;;;5066659;28;20024;-63
2023/04/05 00:55:06;;;;;;;15.30;10.93;;;9.80;93.70;;;;;;5077348;28;20422;-63
2023/04/05 00:57:37;;;;;;;14.15;10.50;;;9.80;93.80;;;;;;5070716;28;20086;-61
2023/04/05 01:00:08;;;;;;;12.63;9.88;;;9.80;93.80;;;;;;5069081;28;20116;-63
2023/04/05 01:02:44;;;;;;;14.95;10.70;;;9.80;93.80;;;;;;5069792;28;20032;-61
2023/04/05 01:05:33;;;;;;;13.15;9.98;;;9.80;93.70;;;;;;5069218;28;20376;-61
2023/04/05 01:08:25;;;;;;;14.40;10.27;;;9.80;93.50;;;;;;5070500;28;20037;-63
2023/04/05 01:10:57;;;;;;;13.93;10.50;;;9.80;93.40;;;;;;5054158;28;20361;-61
2023/04/05 01:13:28;;;;;;;12.73;10.52;;;9.80;93.70;;;;;;5072298;28;20028;-61
2023/04/05 01:15:54;;;;;;;11.05;9.38;;;9.80;93.70;;;;;;5069503;28;20048;-60
2023/04/05 01:18:20;;;;;;;11.15;9.35;;;9.80;93.70;;;;;;5069798;28;20443;-63
2023/04/05 01:20:57;;;;;;;12.38;10.18;;;9.80;93.80;;;;;;5070236;28;20442;-62
2023/04/05 01:24:00;;;;;;;12.18;9.55;;;9.80;93.80;;;;;;5070439;28;20092;-63
2023/04/05 01:26:38;;;;;;;12.55;10.63;;;9.80;93.70;;;;;;5065508;28;20072;-62
2023/04/05 01:29:23;;;;;;;12.70;10.27;;;9.70;94.00;;;;;;5058269;28;20029;-62
2023/04/05 01:32:02;;;;;;;13.65;10.55;;;9.80;94.00;;;;;;5069290;28;20036;-62
2023/04/05 01:34:50;;;;;;;11.77;9.88;;;9.80;94.10;;;;;;5069333;28;20025;-62
2023/04/05 01:37:19;;;;;;;12.18;9.65;;;9.80;94.00;;;;;;5069627;28;20401;-62
2023/04/05 01:39:47;;;;;;;13.43;10.30;;;9.80;94.20;;;;;;5070077;28;20036;-62
2023/04/05 01:42:12;;;;;;;14.85;10.70;;;9.80;94.30;;;;;;5058065;28;20434;-62
2023/04/05 01:44:38;;;;;;;14.50;10.88;;;9.80;94.30;;;;;;5055105;28;20041;-62
2023/04/05 01:47:04;;;;;;;14.00;12.27;;;9.80;94.40;;;;;;5077639;28;20047;-55
2023/04/05 01:49:29;;;;;;;14.18;10.88;;;9.80;94.50;;;;;;5067861;28;20043;-58
2023/04/05 01:51:55;;;;;;;13.52;10.35;;;9.80;94.50;;;;;;5058260;28;20032;-57
2023/04/05 01:54:21;;;;;;;13.30;10.68;;;9.80;94.50;;;;;;5057408;28;20024;-59
2023/04/05 01:56:46;;;;;;;12.82;10.10;;;9.80;94.50;;;;;;5055177;28;20033;-56
2023/04/05 01:59:12;;;;;;;14.48;10.88;;;9.80;94.50;;;;;;5070764;28;20123;-54
2023/04/05 02:01:37;;;;;;;16.38;10.98;;;9.80;94.50;;;;;;5069023;28;20024;-62
2023/04/05 02:04:03;;;;;;;13.23;10.75;;;9.80;94.50;;;;;;5058492;28;20037;-60
2023/04/05 02:06:31;;;;;;;13.77;10.85;;;9.80;94.50;;;;;;5068020;28;20032;-61
2023/04/05 02:08:56;;;;;;;15.80;11.30;;;9.80;94.50;;;;;;5070597;28;20036;-63
2023/04/05 02:11:22;;;;;;;13.32;11.15;;;9.80;94.60;;;;;;5070239;28;20359;-63
2023/04/05 02:13:48;;;;;;;12.50;9.93;;;9.80;94.60;;;;;;5071301;28;20021;-62
2023/04/05 02:16:14;;;;;;;11.93;9.88;;;9.90;94.60;;;;;;5071982;28;20076;-65
2023/04/05 02:18:40;;;;;;;11.55;9.85;;;9.90;94.50;;;;;;5074628;28;20036;-63
2023/04/05 02:21:09;;;;;;;12.05;9.20;;;9.90;94.50;;;;;;5072411;28;20446;-63
2023/04/05 02:23:35;;;;;;;15.30;11.32;;;9.90;94.40;;;;;;5076722;28;20045;-62
2023/04/05 02:26:01;;;;;;;16.63;11.95;;;9.90;94.40;;;;;;5074806;28;20116;-58
2023/04/05 02:28:27;;;;;;;13.18;11.15;;;9.90;94.40;;;;;;5073605;28;20100;-57
2023/04/05 02:30:52;;;;;;;12.98;10.52;;;10.00;94.30;;;;;;5074113;28;20029;-55
2023/04/05 02:33:18;;;;;;;13.77;11.27;;;10.00;94.30;;;;;;5071359;28;20031;-59
2023/04/05 02:35:46;;;;;;;14.38;10.90;;;10.00;94.30;;;;;;5073576;28;20498;-65
2023/04/05 02:38:12;;;;;;;14.23;11.15;;;10.00;94.30;;;;;;5071774;28;20036;-66
2023/04/05 02:40:40;;;;;;;15.13;10.88;;;10.00;94.30;;;;;;5071956;28;20020;-64
2023/04/05 02:43:06;;;;;;;16.08;11.35;;;10.00;94.30;;;;;;5078438;28;20104;-63
2023/04/05 02:45:32;;;;;;;13.80;11.10;;;10.00;94.20;;;;;;5069631;28;20375;-67
2023/04/05 02:47:58;;;;;;;14.77;10.98;;;10.10;94.20;;;;;;5069586;28;20037;-66
2023/04/05 02:50:23;;;;;;;15.10;10.48;;;10.10;94.30;;;;;;5073559;28;20303;-65
2023/04/05 02:52:50;;;;;;;14.55;11.05;;;10.20;94.20;;;;;;5066112;28;20052;-64
2023/04/05 02:55:15;;;;;;;13.32;10.63;;;10.20;94.00;;;;;;5075914;28;20028;-65
2023/04/05 02:57:44;;;;;;;13.90;10.13;;;10.20;93.80;;;;;;5068810;28;20047;-62
2023/04/05 03:00:11;;;;;;;13.10;9.90;;;10.30;93.70;;;;;;5070839;28;20063;-62
2023/04/05 03:02:38;;;;;;;12.50;10.57;;;10.30;93.50;;;;;;5072723;28;20055;-63
2023/04/05 03:05:04;;;;;;;12.15;10.02;;;10.40;93.30;;;;;;5059963;28;20040;-66
2023/04/05 03:07:31;;;;;;;14.05;9.82;;;10.40;93.10;;;;;;5073106;28;20059;-64
2023/04/05 03:09:58;;;;;;;13.73;10.02;;;10.40;92.90;;;;;;5072445;28;20032;-62
2023/04/05 03:12:24;;;;;;;13.80;10.38;;;10.50;92.80;;;;;;5072317;28;20028;-63
2023/04/05 03:14:50;;;;;;;12.77;10.20;;;10.50;92.70;;;;;;5072407;28;20032;-64
2023/04/05 03:17:15;;;;;;;12.57;9.95;;;10.50;92.60;;;;;;5064830;28;20738;-61
2023/04/05 03:19:41;;;;;;;13.07;10.20;;;10.60;92.50;;;;;;5067343;28;20453;-66
2023/04/05 03:22:07;;;;;;;14.02;10.60;;;10.60;92.40;;;;;;5072889;28;20028;-64
2023/04/05 03:24:32;;;;;;;13.18;10.18;;;10.60;92.30;;;;;;5071531;28;20058;-66
2023/04/05 03:27:02;;;;;;;11.82;9.35;;;10.70;92.20;;;;;;5069581;28;20126;-62
2023/04/05 03:29:29;;;;;;;14.18;10.13;;;10.70;92.10;;;;;;5068630;28;20094;-62
2023/04/05 03:31:56;;;;;;;13.63;10.48;;;10.70;92.10;;;;;;5054613;28;20028;-64
2023/04/05 03:34:27;;;;;;;12.63;9.88;;;10.80;92.00;;;;;;5070274;28;20029;-65
2023/04/05 03:36:54;;;;;;;13.65;10.10;;;10.80;91.90;;;;;;5072913;28;20089;-65
2023/04/05 03:39:19;;;;;;;13.05;9.75;;;10.80;91.90;;;;;;5071626;28;20056;-64
2023/04/05 03:41:45;;;;;;;12.85;9.90;;;10.90;91.80;;;;;;5072307;28;20036;-65
2023/04/05 03:44:11;;;;;;;12.10;10.13;;;10.90;91.70;;;;;;5067961;28;20036;-65
2023/04/05 03:46:36;;;;;;;11.32;9.25;;;10.90;91.60;;;;;;5068192;28;20388;-62
2023/04/05 03:49:02;;;;;;;11.90;9.73;;;10.90;91.50;;;;;;5068060;28;20372;-61
2023/04/05 03:51:28;;;;;;;13.32;10.30;;;11.00;91.50;;;;;;5061701;28;20048;-58
2023/04/05 03:53:54;;;;;;;11.95;9.88;;;11.00;91.40;;;;;;5067143;28;20040;-56
2023/04/05 03:56:21;;;;;;;11.93;9.50;;;11.00;91.30;;;;;;5072870;28;20040;-56
2023/04/05 03:58:46;;;;;;;12.20;9.60;;;11.10;91.20;;;;;;5071707;28;20514;-54
2023/04/05 04:01:12;;;;;;;13.25;9.60;;;11.10;91.10;;;;;;5066986;28;20054;-65
2023/04/05 04:03:38;;;;;;;11.13;8.85;;;11.10;91.30;;;;;;5079800;28;20032;-61
2023/04/05 04:06:05;;;;;;;9.82;8.75;;;11.10;90.90;;;;;;5076534;28;20075;-60
2023/04/05 04:08:31;;;;;;;11.60;9.35;;;11.10;90.80;;;;;;5072502;28;20024;-61
2023/04/05 04:10:56;;;;;;;11.55;9.43;;;11.20;90.80;;;;;;5072607;28;20027;-60
2023/04/05 04:13:22;;;;;;;10.57;8.57;;;11.10;90.70;;;;;;5071914;28;20383;-61
2023/04/05 04:15:48;;;;;;;11.02;9.10;;;11.10;90.60;;;;;;5071680;28;20044;-60
2023/04/05 04:18:13;;;;;;;12.35;9.38;;;11.10;90.60;;;;;;5055239;28;20049;-60
2023/04/05 04:20:42;;;;;;;11.57;8.95;;;11.20;90.50;;;;;;5067672;28;20514;-58
2023/04/05 04:23:09;;;;;;;10.68;8.70;;;11.20;90.50;;;;;;5071921;28;20032;-60
2023/04/05 04:25:36;;;;;;;12.82;8.98;;;11.20;90.50;;;;;;5070680;28;20463;-61
2023/04/05 04:28:05;;;;;;;11.20;9.35;;;11.20;90.50;;;;;;5061149;28;20021;-61
2023/04/05 04:30:33;;;;;;;11.60;9.05;;;11.20;90.50;;;;;;5069779;28;20404;-62
2023/04/05 04:33:02;;;;;;;11.93;9.43;;;11.20;90.50;;;;;;5066182;28;20029;-61
2023/04/05 04:35:29;;;;;;;12.50;8.95;;;11.20;90.40;;;;;;5061215;28;20360;-62
2023/04/05 04:38:06;;;;;;;13.02;9.50;;;11.20;90.30;;;;;;5066054;28;20359;-63
2023/04/05 04:40:40;;;;;;;10.52;8.85;;;11.30;90.30;;;;;;5059765;28;20573;-61
2023/04/05 04:43:15;;;;;;;12.02;9.85;;;11.30;90.30;;;;;;5066984;28;20077;-61
2023/04/05 04:45:45;;;;;;;11.18;8.68;;;11.30;90.20;;;;;;5059943;28;20091;-63
2023/04/05 04:48:12;;;;;;;12.93;9.52;;;11.30;90.20;;;;;;5065757;28;20103;-62
2023/04/05 04:50:39;;;;;;;11.27;8.68;;;11.30;90.20;;;;;;5064310;28;20025;-63
2023/04/05 04:53:05;;;;;;;12.25;9.25;;;11.30;90.20;;;;;;5062528;28;20182;-63
2023/04/05 04:55:32;;;;;;;11.25;8.85;;;11.40;90.20;;;;;;5077034;28;20031;-62
2023/04/05 04:57:58;;;;;;;14.88;9.32;;;11.40;90.10;;;;;;5070860;28;20036;-61
2023/04/05 05:00:24;;;;;;;11.48;8.70;;;11.40;90.00;;;;;;5070343;28;20071;-66
2023/04/05 05:02:54;;;;;;;11.02;8.77;;;11.40;90.10;;;;;;5052366;28;20063;-63
2023/04/05 05:05:21;;;;;;;10.40;8.68;;;11.40;90.00;;;;;;5070244;28;20063;-63
2023/04/05 05:07:48;;;;;;;10.88;8.45;;;11.40;89.90;;;;;;5073014;28;20036;-63
2023/04/05 05:10:15;;;;;;;11.98;8.70;;;11.40;89.80;;;;;;5061914;28;20029;-64
2023/04/05 05:12:41;;;;;;;11.77;8.88;;;11.40;89.70;;;;;;5066182;28;20114;-57
2023/04/05 05:15:07;;;;;;;11.90;8.90;;;11.50;89.50;;;;;;5065316;28;20048;-58
2023/04/05 05:17:36;;;;;;;10.48;7.80;;;11.50;89.50;;;;;;5067232;28;20497;-61
2023/04/05 05:20:09;;;;;;;9.85;7.70;;;11.50;89.40;;;;;;5069815;28;20498;-59
2023/04/05 05:22:38;;;;;;;10.52;7.75;;;11.60;89.50;;;;;;5070097;28;20382;-59
2023/04/05 05:25:08;;;;;;;10.15;8.23;;;11.60;89.30;;;;;;5068826;28;20053;-62
2023/04/05 05:27:34;;;;;;;9.95;7.57;;;11.70;89.40;;;;;;5065201;28;20186;-63
2023/04/05 05:30:00;;;;;;;10.90;8.07;;;11.70;89.20;;;;;;5064400;28;20546;-60
2023/04/05 05:32:26;;;;;;;11.07;8.05;;;11.80;89.10;;;;;;5055277;28;20467;-60
2023/04/05 05:34:51;;;;;;;10.82;7.95;;;11.90;89.10;;;;;;5062755;28;20035;-63
2023/04/05 05:37:17;;;;;;;10.15;7.20;;;12.00;88.80;;;;;;5066925;28;20037;-63
2023/04/05 05:39:45;;;;;;;11.90;8.05;;;12.10;88.50;;;;;;5073586;28;20062;-63
2023/04/05 05:42:11;;;;;;;8.88;7.03;;;12.20;88.30;;;;;;5061625;28;20029;-61
2023/04/05 05:44:37;;;;;;;11.30;7.43;;;12.30;88.70;;;;;;5068559;28;20516;-62
2023/04/05 05:47:03;;;;;;;9.88;7.93;;;12.50;88.60;;;;;;5071194;28;20037;-61
2023/04/05 05:49:30;;;;;;;8.63;7.22;;;12.80;87.90;;;;;;5065622;28;20025;-62
2023/04/05 05:51:56;;;;;;;10.23;7.65;;;13.00;87.70;;;;;;5062048;28;20032;-59
2023/04/05 05:54:22;;;;;;;9.88;7.68;;;13.20;87.30;;;;;;5069426;28;20023;-60
2023/04/05 05:56:47;;;;;;;7.93;7.00;;;13.60;86.50;;;;;;5069740;28;20036;-60
2023/04/05 05:59:13;;;;;;;8.52;6.65;;;14.10;85.00;;;;;;5063110;28;20036;-61
2023/04/05 06:01:41;;;;;;;11.43;7.50;;;14.50;82.90;;;;;;5060754;28;20039;-60
2023/04/05 06:04:07;;;;;;;9.63;7.00;;;14.80;81.40;;;;;;5064934;28;20024;-62
2023/04/05 06:06:34;;;;;;;8.75;6.63;;;15.00;80.50;;;;;;5078777;28;20039;-61
2023/04/05 06:09:00;;;;;;;8.95;6.75;;;15.10;79.90;;;;;;5058501;28;20044;-58
2023/04/05 06:11:25;;;;;;;9.80;7.53;;;15.10;79.60;;;;;;5057247;28;20044;-62
2023/04/05 06:13:53;;;;;;;9.27;7.13;;;15.10;79.60;;;;;;5059831;28;20037;-60
2023/04/05 06:16:19;;;;;;;8.50;6.78;;;15.10;79.40;;;;;;5055222;28;20040;-62
2023/04/05 06:18:46;;;;;;;9.13;6.78;;;15.00;79.30;;;;;;5060182;28;20044;-61
2023/04/05 06:21:12;;;;;;;8.52;7.00;;;14.90;79.10;;;;;;5063351;28;20052;-60
2023/04/05 06:23:39;;;;;;;8.98;6.70;;;14.90;79.00;;;;;;5054472;28;20056;-60
2023/04/05 06:26:05;;;;;;;9.40;7.03;;;14.80;78.80;;;;;;5067225;28;20476;-61
2023/04/05 06:28:31;;;;;;;10.80;7.68;;;14.70;78.80;;;;;;5068640;28;20128;-60
2023/04/05 06:30:58;;;;;;;8.23;6.55;;;14.60;78.80;;;;;;5067328;28;20040;-61
2023/04/05 06:33:24;;;;;;;9.07;7.18;;;14.50;78.90;;;;;;5060999;28;20062;-60
2023/04/05 06:35:50;;;;;;;9.48;7.18;;;14.50;79.00;;;;;;5063562;28;20131;-60
2023/04/05 06:38:16;;;;;;;7.70;6.53;;;14.50;79.10;;;;;;5061568;28;20126;-60
2023/04/05 06:40:41;;;;;;;9.27;6.95;;;14.40;79.00;;;;;;5059099;28;20045;-65
2023/04/05 06:43:09;;;;;;;8.80;6.93;;;14.40;79.10;;;;;;5067177;28;20032;-62
2023/04/05 06:45:35;;;;;;;9.90;7.15;;;14.40;79.30;;;;;;5053134;28;20033;-64
2023/04/05 06:48:00;;;;;;;9.93;6.95;;;14.50;79.30;;;;;;5054391;28;20028;-62
2023/04/05 06:50:26;;;;;;;9.52;6.80;;;14.50;79.00;;;;;;5054695;28;20105;-63
2023/04/05 06:52:52;;;;;;;9.80;7.38;;;14.50;78.80;;;;;;5055038;28;20036;-63
2023/04/05 06:55:17;;;;;;;9.32;7.05;;;14.60;78.80;;;;;;5055570;28;20367;-62
2023/04/05 06:57:43;;;;;;;9.63;6.90;;;14.60;78.80;;;;;;5063957;28;20160;-61
2023/04/05 07:00:10;;;;;;;8.95;6.68;;;14.60;78.70;;;;;;5053346;28;20041;-62
2023/04/05 07:02:36;;;;;;;9.02;7.03;;;14.70;78.50;;;;;;5050747;28;20366;-62
2023/04/05 07:05:04;;;;;;;9.15;6.75;;;14.70;78.50;;;;;;5059453;28;20035;-62
2023/04/05 07:07:41;;;;;;;8.57;6.68;;;14.70;78.40;;;;;;5053967;28;20033;-61
2023/04/05 07:10:08;;;;;;;8.68;6.85;;;14.80;78.20;;;;;;5028803;28;20567;-59
2023/04/05 07:12:34;;;;;;;10.95;7.15;;;14.90;78.20;;;;;;5052913;28;20063;-60
2023/04/05 07:14:59;;;;;;;9.10;6.82;;;14.90;78.20;;;;;;5049828;28;20050;-60
2023/04/05 07:17:25;;;;;;;10.02;7.15;;;15.00;77.90;;;;;;5050765;28;20102;-60
2023/04/05 07:19:50;;;;;;;9.27;6.80;;;15.00;77.70;;;;;;5044339;28;20044;-60
2023/04/05 07:22:16;;;;;;;9.88;6.88;;;15.00;77.50;;;;;;5052419;28;20033;-61
2023/04/05 07:24:44;;;;;;;8.57;6.55;;;15.00;77.40;;;;;;5053288;28;20076;-62
2023/04/05 07:27:10;;;;;;;8.57;6.75;;;15.00;77.30;;;;;;5049293;28;20406;-61
2023/04/05 07:29:39;;;;;;;9.05;6.82;;;14.90;77.50;;;;;;5046347;28;20036;-61
2023/04/05 07:32:08;;;;;;;8.93;6.35;;;14.90;77.50;;;;;;5033947;28;20036;-58
2023/04/05 07:34:34;;;;;;;8.40;6.63;;;14.80;77.50;;;;;;5046899;28;20063;-59
2023/04/05 07:37:00;;;;;;;8.63;6.35;;;14.80;77.50;;;;;;5053376;28;20097;-60
2023/04/05 07:39:26;;;;;;;7.60;6.07;;;14.70;77.60;;;;;;5046851;28;20498;-59
2023/04/05 07:41:52;;;;;;;8.38;6.45;;;14.60;77.60;;;;;;5037245;28;20028;-62
2023/04/05 07:44:17;;;;;;;8.70;5.90;;;14.60;77.80;;;;;;5045998;28;20032;-59
2023/04/05 07:46:43;;;;;;;8.90;6.05;;;14.50;78.00;;;;;;5049609;28;20820;-60
2023/04/05 07:49:10;;;;;;;9.73;6.43;;;14.50;78.30;;;;;;5054686;28;20807;-59
2023/04/05 07:51:37;;;;;;;8.18;6.75;;;14.40;78.50;;;;;;5044538;28;20041;-58
2023/04/05 07:54:06;;;;;;;9.07;6.47;;;14.40;78.50;;;;;;5043833;28;20032;-60
2023/04/05 07:56:32;;;;;;;7.63;5.90;;;14.40;78.70;;;;;;5030695;28;20036;-59
2023/04/05 07:58:58;;;;;;;10.27;7.00;;;14.40;78.80;;;;;;5034311;28;20061;-58
2023/04/05 08:01:27;;;;;;;8.10;6.22;;;14.50;79.00;;;;;;5039918;28;20040;-60
2023/04/05 08:03:56;;;;;;;8.27;6.40;;;14.50;78.80;;;;;;5047547;28;20051;-61
2023/04/05 08:06:22;;;;;;;8.50;6.53;;;14.50;78.70;;;;;;5040351;28;20127;-58
2023/04/05 08:08:48;;;;;;;9.50;6.63;;;14.60;78.80;;;;;;5053617;28;20025;-59
2023/04/05 08:11:14;;;;;;;9.30;6.85;;;14.60;78.80;;;;;;5044215;28;20399;-58
2023/04/05 08:13:40;;;;;;;9.10;6.70;;;14.70;78.80;;;;;;5045018;28;20464;-60
2023/04/05 08:16:10;;;;;;;8.48;6.85;;;14.80;78.60;;;;;;5049454;28;20025;-58
2023/04/05 08:18:36;;;;;;;9.48;7.05;;;14.90;78.30;;;;;;5040972;28;20450;-58
2023/04/05 08:21:02;;;;;;;9.15;6.47;;;15.00;78.30;;;;;;5049175;28;20046;-59
2023/04/05 08:23:27;;;;;;;9.52;6.90;;;15.10;77.90;;;;;;5050160;28;20471;-58
2023/04/05 08:25:53;;;;;;;9.43;6.85;;;15.20;77.60;;;;;;5047905;28;20047;-58
2023/04/05 08:28:20;;;;;;;9.65;6.38;;;15.30;77.20;;;;;;5033022;28;20033;-59
2023/04/05 08:30:46;;;;;;;8.60;6.55;;;15.40;77.00;;;;;;5044702;28;20039;-58
2023/04/05 08:33:12;;;;;;;9.20;6.65;;;15.50;76.90;;;;;;5024320;28;20031;-59
2023/04/05 08:35:39;;;;;;;7.80;6.15;;;15.50;76.70;;;;;;5050093;28;20098;-60
2023/04/05 08:38:06;;;;;;;8.63;6.00;;;15.60;76.60;;;;;;5048023;28;20039;-59
2023/04/05 08:40:46;;;;;;;10.23;6.95;;;15.60;76.40;;;;;;5051848;28;20036;-61
2023/04/05 08:43:43;;;;;;;8.35;6.55;;;15.60;76.30;;;;;;5051219;28;20595;-60
2023/04/05 08:46:15;;;;;;;7.57;6.30;;;15.60;76.40;;;;;;5052827;28;20458;-60
2023/04/05 08:48:41;;;;;;;11.10;6.40;;;15.60;76.60;;;;;;5051466;28;20434;-60
2023/04/05 08:51:08;;;;;;;9.20;6.82;;;15.60;76.60;;;;;;5048834;28;20024;-59
2023/04/05 08:53:34;;;;;;;10.68;7.05;;;15.60;76.50;;;;;;5042694;28;20100;-58
2023/04/05 08:56:02;;;;;;;9.18;6.80;;;15.60;76.40;;;;;;5041941;28;20041;-57
2023/04/05 08:58:30;;;;;;;9.02;6.47;;;15.60;76.40;;;;;;5035480;28;20093;-58
2023/04/05 09:00:57;;;;;;;8.65;6.38;;;15.60;76.50;;;;;;5023466;28;20129;-58
2023/04/05 09:03:28;;;;;;;8.48;6.75;;;15.60;76.40;;;;;;5043946;28;20028;-59
2023/04/05 09:05:57;;;;;;;9.23;6.57;;;15.60;76.40;;;;;;5055564;28;20036;-61
2023/04/05 09:08:23;;;;;;;8.70;6.57;;;15.60;76.40;;;;;;5049106;28;20032;-59
2023/04/05 09:10:50;;;;;;;8.77;6.47;;;15.60;76.50;;;;;;5059400;28;21250;-57
2023/04/05 09:13:16;;;;;;;9.18;6.97;;;15.60;76.50;;;;;;5043500;28;20799;-59
2023/04/05 09:15:43;;;;;;;10.30;7.25;;;15.60;76.40;;;;;;5047984;28;20098;-60
2023/04/05 09:18:08;;;;;;;8.35;6.45;;;15.60;76.40;;;;;;5038231;28;20036;-59
2023/04/05 09:20:34;;;;;;;9.27;7.07;;;15.70;76.30;;;;;;5045260;28;20850;-60
2023/04/05 09:22:59;;;;;;;10.43;7.07;;;15.80;76.40;;;;;;5046943;28;20156;-59
2023/04/05 09:25:31;;;;;;;9.25;7.07;;;15.90;76.20;;;;;;5044186;28;20044;-60
2023/04/05 09:27:58;;;;;;;8.75;6.82;;;15.90;75.80;;;;;;5040633;28;20123;-61
2023/04/05 09:30:26;;;;;;;7.72;6.10;;;15.90;75.60;;;;;;5043489;28;20039;-61
2023/04/05 09:32:54;;;;;;;8.73;6.30;;;16.00;75.40;;;;;;5045338;28;20044;-61
2023/04/05 09:35:30;;;;;;;8.60;6.80;;;16.00;75.10;;;;;;5054811;28;20502;-59
2023/04/05 09:38:02;;;;;;;8.55;6.68;;;16.00;75.00;;;;;;5055795;28;20048;-62
2023/04/05 09:40:48;;;;;;;7.78;6.00;;;16.00;75.00;;;;;;5056272;28;20028;-59
2023/04/05 09:43:37;;;;;;;9.32;6.90;;;16.00;75.00;;;;;;5035817;28;20032;-58
2023/04/05 09:46:03;;;;;;;9.02;6.93;;;15.90;75.00;;;;;;5036249;28;20116;-57
2023/04/05 09:48:48;;;;;;;7.75;6.15;;;15.90;75.00;;;;;;5054254;28;20064;-59
2023/04/05 09:51:15;;;;;;;8.70;6.97;;;15.90;75.10;;;;;;5042190;28;20037;-59
2023/04/05 09:53:58;;;;;;;8.25;6.80;;;15.90;75.10;;;;;;5045551;28;20083;-60
2023/04/05 09:56:25;;;;;;;8.70;6.60;;;15.90;75.10;;;;;;5039235;28;20042;-58
2023/04/05 09:58:51;;;;;;;8.40;6.35;;;15.90;75.00;;;;;;5040042;28;21768;-60
2023/04/05 10:01:21;;;;;;;10.13;7.47;;;16.00;75.00;;;;;;5044837;28;20083;-59
2023/04/05 10:03:47;;;;;;;7.20;5.50;;;16.00;74.80;;;;;;5050470;28;20137;-60
2023/04/05 10:06:14;;;;;;;9.20;6.80;;;16.10;74.90;;;;;;5050880;28;20044;-60
2023/04/05 10:08:40;;;;;;;8.88;6.45;;;16.10;74.60;;;;;;5052937;28;20029;-59
2023/04/05 10:11:06;;;;;;;8.07;6.38;;;16.10;74.50;;;;;;5048322;28;20102;-60
2023/04/05 10:13:32;;;;;;;7.38;6.25;;;16.20;75.20;;;;;;5038759;28;20140;-60
2023/04/05 10:16:00;;;;;;;8.85;6.45;;;16.20;74.60;;;;;;5054698;28;20051;-61
2023/04/05 10:18:38;;;;;;;7.55;6.38;;;16.20;74.60;;;;;;5047185;28;20025;-58
2023/04/05 10:21:05;;;;;;;9.18;7.03;;;16.30;74.40;;;;;;5052652;28;20032;-61
2023/04/05 10:23:35;;;;;;;8.23;6.68;;;16.40;74.40;;;;;;5050293;28;20049;-59
2023/04/05 10:26:11;;;;;;;8.15;5.95;;;16.40;74.20;;;;;;5047234;28;20043;-58
2023/04/05 10:28:42;;;;;;;8.73;6.30;;;16.50;73.90;;;;;;5043575;28;20036;-58
2023/04/05 10:31:32;;;;;;;8.05;6.00;;;16.50;73.80;;;;;;5054059;28;20527;-59
2023/04/05 10:34:07;;;;;;;6.97;5.55;;;16.60;73.80;;;;;;5056420;28;20029;-58
2023/04/05 10:36:48;;;;;;;7.70;5.32;;;16.60;73.60;;;;;;5057025;28;20028;-59
2023/04/05 10:39:25;;;;;;;8.57;6.47;;;16.70;73.70;;;;;;5062722;28;20549;-58
2023/04/05 10:41:58;;;;;;;7.15;5.47;;;16.60;73.30;;;;;;5059895;28;20028;-59
2023/04/05 10:44:23;;;;;;;7.15;6.07;;;16.60;73.00;;;;;;5052688;28;20123;-60
2023/04/05 10:46:51;;;;;;;8.55;5.82;;;16.60;73.10;;;;;;5058278;28;20471;-59
2023/04/05 10:49:38;;;;;;;7.72;5.75;;;16.60;73.10;;;;;;5055838;28;20467;-59
2023/04/05 10:52:04;;;;;;;6.55;5.28;;;16.60;72.90;;;;;;5056801;28;20040;-58
2023/04/05 10:54:35;;;;;;;6.63;5.38;;;16.60;72.90;;;;;;5039540;28;20036;-60
2023/04/05 10:57:05;;;;;;;6.68;4.97;;;16.60;72.70;;;;;;5049470;28;20079;-61
2023/04/05 10:59:33;;;;;;;7.68;5.80;;;16.60;72.70;;;;;;5058076;28;20091;-60
2023/04/05 11:01:59;;;;;;;7.25;5.70;;;16.60;72.60;;;;;;5047226;28;20238;-60
2023/04/05 11:04:25;;;;;;;7.80;5.57;;;16.60;72.50;;;;;;5053695;28;20111;-60
2023/04/05 11:07:09;;;;;;;6.13;5.07;;;16.60;72.30;;;;;;5050507;28;21864;-58
2023/04/05 11:09:36;;;;;;;6.63;5.63;;;16.50;72.20;;;;;;5041711;28;20103;-60
2023/04/05 11:12:02;;;;;;;6.40;5.38;;;16.50;72.20;;;;;;5050503;28;20024;-57
2023/04/05 11:14:34;;;;;;;7.35;5.65;;;16.50;72.10;;;;;;5045460;28;20033;-59
2023/04/05 11:17:01;;;;;;;6.57;5.18;;;16.60;72.10;;;;;;5053776;28;20036;-60
2023/04/05 11:19:42;;;;;;;6.95;5.10;;;16.50;72.00;;;;;;5051136;28;20486;-59
2023/04/05 11:22:11;;;;;;;6.75;5.13;;;16.50;72.00;;;;;;5053716;28;20544;-60
2023/04/05 11:24:52;;;;;;;6.82;5.30;;;16.50;72.00;;;;;;5049086;28;20098;-60
2023/04/05 11:27:31;;;;;;;5.70;4.68;;;16.50;72.00;;;;;;5037045;28;20039;-60
2023/04/05 11:30:02;;;;;;;8.23;5.40;;;16.50;72.00;;;;;;5036694;28;20051;-59
2023/04/05 11:32:43;;;;;;;7.88;5.40;;;16.60;71.90;;;;;;5045538;28;20036;-60
2023/04/05 11:35:21;;;;;;;6.55;4.97;;;16.50;71.70;;;;;;5052080;28;20043;-58
2023/04/05 11:37:59;;;;;;;5.47;4.43;;;16.60;71.60;;;;;;5059745;28;20121;-59
2023/04/05 11:40:26;;;;;;;5.90;4.38;;;16.60;72.10;;;;;;5051345;28;20120;-60
2023/04/05 11:43:12;;;;;;;5.07;4.25;;;16.60;71.30;;;;;;5050289;28;20029;-61
2023/04/05 11:45:45;;;;;;;6.57;4.65;;;16.60;71.10;;;;;;5039528;28;20102;-59
2023/04/05 11:48:13;;;;;;;5.68;4.32;;;16.60;71.00;;;;;;5033745;28;20029;-60
2023/04/05 11:50:45;;;;;;;5.85;4.63;;;16.50;70.50;;;;;;5050439;28;20032;-59
2023/04/05 11:53:16;;;;;;;5.10;3.92;;;16.60;70.40;;;;;;5050707;28;20399;-61
2023/04/05 11:55:47;;;;;;;6.35;4.60;;;16.50;70.40;;;;;;5044101;28;20052;-59
2023/04/05 11:58:21;;;;;;;5.20;4.22;;;16.50;70.30;;;;;;5046372;28;20449;-58
2023/04/05 12:01:08;;;;;;;6.07;4.53;;;16.50;70.30;;;;;;5043213;28;21695;-61
2023/04/05 12:03:35;;;;;;;5.50;4.25;;;16.50;70.30;;;;;;5044444;28;20334;-57
2023/04/05 12:06:05;;;;;;;6.43;4.03;;;16.40;70.30;;;;;;5056865;28;20665;-58
2023/04/05 12:08:41;;;;;;;6.43;4.97;;;16.50;70.30;;;;;;5029871;28;20078;-59
2023/04/05 12:11:11;;;;;;;5.50;4.35;;;16.40;70.20;;;;;;5050376;28;20948;-58
2023/04/05 12:13:37;;;;;;;6.10;4.22;;;16.40;70.30;;;;;;5050719;28;20047;-59
2023/04/05 12:16:05;;;;;;;6.45;4.90;;;16.40;70.30;;;;;;5047869;28;20037;-59
2023/04/05 12:18:33;;;;;;;7.07;5.13;;;16.30;70.50;;;;;;5043340;28;20070;-63
2023/04/05 12:21:00;;;;;;;6.80;5.45;;;16.30;70.60;;;;;;5047726;28;20036;-61
2023/04/05 12:23:26;;;;;;;5.95;5.10;;;16.30;70.80;;;;;;5048487;28;20136;-61
2023/04/05 12:25:55;;;;;;;5.47;4.80;;;16.30;70.90;;;;;;5047010;28;20445;-60
2023/04/05 12:28:21;;;;;;;5.93;4.80;;;16.30;71.10;;;;;;5045520;28;20047;-56
2023/04/05 12:30:51;;;;;;;6.43;4.80;;;16.20;71.10;;;;;;5042575;28;20028;-57
2023/04/05 12:33:27;;;;;;;7.18;4.53;;;16.20;70.90;;;;;;5040704;28;20047;-61
2023/04/05 12:35:53;;;;;;;6.70;4.82;;;16.20;70.80;;;;;;5054138;28;20167;-60
2023/04/05 12:38:18;;;;;;;6.30;4.88;;;16.20;70.50;;;;;;5052290;28;20648;-61
2023/04/05 12:40:44;;;;;;;5.55;4.38;;;16.20;70.40;;;;;;5040536;28;20085;-59
2023/04/05 12:43:10;;;;;;;7.63;4.90;;;16.20;70.30;;;;;;5055408;28;20032;-61
2023/04/05 12:45:40;;;;;;;5.53;4.40;;;16.10;70.10;;;;;;5047450;28;20421;-59
2023/04/05 12:48:13;;;;;;;6.32;4.57;;;16.10;70.50;;;;;;5044696;28;20028;-61
2023/04/05 12:50:47;;;;;;;5.90;4.28;;;16.10;70.70;;;;;;5048946;28;20044;-61